createdAt,value
2023-10-14T00:00:58.452Z,17.20
2023-10-14T00:01:58.420Z,17.80
2023-10-14T00:02:58.421Z,19.50
2023-10-14T00:03:58.446Z,19.60
2023-10-14T00:04:58.386Z,17.10
2023-10-14T00:05:58.340Z,20.00
2023-10-14T00:06:58.409Z,13.80
2023-10-14T00:07:58.337Z,10.50
2023-10-14T00:08:58.317Z,7.80
2023-10-14T00:09:58.733Z,4.50
2023-10-14T00:10:58.290Z,5.60
2023-10-14T00:11:58.282Z,4.50
2023-10-14T00:12:58.349Z,3.20
2023-10-14T00:13:58.280Z,2.80
2023-10-14T00:14:58.240Z,2.40
2023-10-14T00:15:58.242Z,2.00
2023-10-14T00:16:58.244Z,2.40
2023-10-14T00:17:58.232Z,3.60
2023-10-14T00:18:58.339Z,3.20
2023-10-14T00:19:58.195Z,3.30
2023-10-14T00:20:58.177Z,2.30
2023-10-14T00:21:58.227Z,2.40
2023-10-14T00:22:58.154Z,3.20
2023-10-14T00:23:58.142Z,2.70
2023-10-14T00:24:58.171Z,3.40
2023-10-14T00:25:58.123Z,2.70
2023-10-14T00:26:58.110Z,4.20
2023-10-14T00:27:58.106Z,3.00
2023-10-14T00:28:58.083Z,1.90
2023-10-14T00:29:58.092Z,3.30
2023-10-14T00:30:58.095Z,1.70
2023-10-14T00:31:58.106Z,1.50
2023-10-14T00:32:58.061Z,4.30
2023-10-14T00:33:58.078Z,4.10
2023-10-14T00:34:58.039Z,3.50
2023-10-14T00:35:58.030Z,3.00
2023-10-14T00:36:58.046Z,2.20
2023-10-14T00:37:57.990Z,2.20
2023-10-14T00:38:57.967Z,2.90
2023-10-14T00:39:57.990Z,2.20
2023-10-14T00:40:57.971Z,4.00
2023-10-14T00:41:57.951Z,4.00
2023-10-14T00:42:57.931Z,3.60
2023-10-14T00:43:57.920Z,6.60
2023-10-14T00:44:57.909Z,3.80
2023-10-14T00:45:57.948Z,3.20
2023-10-14T00:46:58.124Z,3.30
2023-10-14T00:47:57.900Z,3.30
2023-10-14T00:48:57.883Z,4.50
2023-10-14T00:49:57.846Z,5.00
2023-10-14T00:50:57.837Z,4.40
2023-10-14T00:51:57.851Z,4.00
2023-10-14T00:52:57.832Z,3.50
2023-10-14T00:53:57.808Z,3.30
2023-10-14T00:54:57.884Z,4.60
2023-10-14T00:55:57.775Z,3.70
2023-10-14T00:56:57.789Z,3.00
2023-10-14T00:57:57.787Z,2.20
2023-10-14T00:58:57.750Z,2.70
2023-10-14T00:59:57.736Z,2.00
2023-10-14T01:00:57.771Z,2.90
2023-10-14T01:01:57.741Z,4.10
2023-10-14T01:02:57.739Z,4.90
2023-10-14T01:03:57.742Z,3.90
2023-10-14T01:04:57.680Z,2.50
2023-10-14T01:05:57.683Z,3.70
2023-10-14T01:06:57.730Z,5.60
2023-10-14T01:07:57.655Z,2.00
2023-10-14T01:08:57.645Z,6.30
2023-10-14T01:09:57.643Z,3.20
2023-10-14T01:10:57.616Z,3.30
2023-10-14T01:11:57.597Z,2.90
2023-10-14T01:12:57.634Z,3.30
2023-10-14T01:13:57.580Z,3.70
2023-10-14T01:14:57.566Z,5.50
2023-10-14T01:15:57.628Z,3.40
2023-10-14T01:16:57.599Z,4.00
2023-10-14T01:17:57.590Z,3.20
2023-10-14T01:18:57.533Z,4.40
2023-10-14T01:19:57.512Z,4.00
2023-10-14T01:20:57.488Z,2.90
2023-10-14T01:21:57.550Z,4.60
2023-10-14T01:22:57.526Z,2.60
2023-10-14T01:23:57.456Z,4.90
2023-10-14T01:24:57.485Z,6.00
2023-10-14T01:25:57.450Z,2.70
2023-10-14T01:26:57.430Z,1.90
2023-10-14T01:27:57.446Z,3.80
2023-10-14T01:28:57.427Z,4.10
2023-10-14T01:29:57.396Z,3.00
2023-10-14T01:30:57.427Z,3.40
2023-10-14T01:31:57.455Z,5.50
2023-10-14T01:32:57.477Z,1.90
2023-10-14T01:33:57.387Z,7.50
2023-10-14T01:34:57.336Z,4.10
2023-10-14T01:35:57.329Z,4.70
2023-10-14T01:36:57.402Z,6.10
2023-10-14T01:37:57.331Z,4.30
2023-10-14T01:38:57.313Z,3.40
2023-10-14T01:39:57.301Z,3.20
2023-10-14T01:40:57.266Z,4.00
2023-10-14T01:41:57.254Z,3.10
2023-10-14T01:42:57.313Z,4.50
2023-10-14T01:43:57.267Z,4.50
2023-10-14T01:44:57.236Z,4.70
2023-10-14T01:45:57.275Z,3.30
2023-10-14T01:46:57.277Z,5.00
2023-10-14T01:47:57.207Z,5.40
2023-10-14T01:48:57.222Z,2.80
2023-10-14T01:49:57.181Z,4.30
2023-10-14T01:50:57.197Z,3.70
2023-10-14T01:51:57.177Z,3.30
2023-10-14T01:52:57.148Z,3.50
2023-10-14T01:53:57.137Z,7.60
2023-10-14T01:54:57.222Z,3.80
2023-10-14T01:55:57.094Z,5.70
2023-10-14T01:56:57.089Z,4.10
2023-10-14T01:57:57.152Z,4.30
2023-10-14T01:58:57.079Z,3.20
2023-10-14T01:59:57.062Z,6.20
2023-10-14T02:00:57.108Z,3.40
2023-10-14T02:01:57.059Z,4.00
2023-10-14T02:02:57.131Z,4.40
2023-10-14T02:03:57.141Z,3.60
2023-10-14T02:04:57.158Z,2.30
2023-10-14T02:05:56.979Z,5.30
2023-10-14T02:06:56.996Z,3.70
2023-10-14T02:07:56.958Z,4.60
2023-10-14T02:08:56.967Z,4.40
2023-10-14T02:09:57.153Z,5.00
2023-10-14T02:10:56.938Z,3.40
2023-10-14T02:11:56.920Z,9.00
2023-10-14T02:12:56.913Z,3.80
2023-10-14T02:13:56.915Z,4.60
2023-10-14T02:14:56.902Z,3.50
2023-10-14T02:15:56.946Z,2.90
2023-10-14T02:16:57.002Z,4.50
2023-10-14T02:17:56.878Z,5.60
2023-10-14T02:18:56.879Z,3.70
2023-10-14T02:19:56.834Z,6.20
2023-10-14T02:20:56.818Z,3.60
2023-10-14T02:21:56.829Z,7.80
2023-10-14T02:22:56.799Z,6.60
2023-10-14T02:23:56.785Z,3.20
2023-10-14T02:24:56.822Z,2.80
2023-10-14T02:25:56.776Z,6.10
2023-10-14T02:26:56.742Z,5.20
2023-10-14T02:27:56.763Z,3.60
2023-10-14T02:28:56.733Z,4.70
2023-10-14T02:29:56.737Z,3.70
2023-10-14T02:30:56.820Z,4.60
2023-10-14T02:31:56.702Z,3.20
2023-10-14T02:32:56.690Z,2.90
2023-10-14T02:33:56.692Z,5.10
2023-10-14T02:34:56.684Z,2.20
2023-10-14T02:35:56.647Z,3.20
2023-10-14T02:36:56.648Z,1.50
2023-10-14T02:37:56.625Z,3.00
2023-10-14T02:38:56.630Z,3.80
2023-10-14T02:41:07.216Z,5.10
2023-10-14T02:42:08.193Z,4.00
2023-10-14T02:43:08.264Z,4.20
2023-10-14T02:44:08.244Z,3.80
2023-10-14T02:45:08.189Z,4.10
2023-10-14T02:46:08.162Z,2.60
2023-10-14T02:47:08.184Z,4.70
2023-10-14T02:48:08.173Z,6.00
2023-10-14T02:49:08.238Z,3.40
2023-10-14T02:50:08.132Z,4.80
2023-10-14T02:51:08.112Z,2.90
2023-10-14T02:52:08.119Z,3.50
2023-10-14T02:53:08.095Z,3.00
2023-10-14T02:54:08.076Z,4.30
2023-10-14T02:55:08.067Z,2.10
2023-10-14T02:56:08.050Z,3.80
2023-10-14T02:57:08.014Z,2.60
2023-10-14T02:58:08.045Z,4.10
2023-10-14T02:59:08.021Z,4.20
2023-10-14T03:00:08.027Z,6.40
2023-10-14T03:01:08.073Z,3.30
2023-10-14T03:02:08.039Z,4.40
2023-10-14T03:03:08.050Z,3.80
2023-10-14T03:04:07.982Z,4.50
2023-10-14T03:05:07.983Z,4.90
2023-10-14T03:06:07.942Z,3.20
2023-10-14T03:07:07.968Z,2.50
2023-10-14T03:08:07.924Z,3.30
2023-10-14T03:09:07.912Z,3.40
2023-10-14T03:10:07.982Z,4.10
2023-10-14T03:11:07.932Z,4.10
2023-10-14T03:12:07.884Z,3.20
2023-10-14T03:13:07.913Z,3.40
2023-10-14T03:14:07.873Z,4.30
2023-10-14T03:15:07.841Z,4.80
2023-10-14T03:16:07.897Z,3.30
2023-10-14T03:17:07.884Z,4.20
2023-10-14T03:18:07.876Z,2.90
2023-10-14T03:19:07.833Z,5.00
2023-10-14T03:20:07.810Z,3.20
2023-10-14T03:21:07.810Z,6.00
2023-10-14T03:22:07.845Z,4.80
2023-10-14T03:23:07.778Z,3.60
2023-10-14T03:24:07.749Z,4.10
2023-10-14T03:25:07.758Z,5.10
2023-10-14T03:26:07.763Z,4.40
2023-10-14T03:27:07.731Z,4.30
2023-10-14T03:28:07.809Z,3.40
2023-10-14T03:29:07.678Z,5.70
2023-10-14T03:30:07.698Z,2.40
2023-10-14T03:31:07.747Z,2.50
2023-10-14T03:32:07.665Z,2.60
2023-10-14T03:33:07.677Z,6.60
2023-10-14T03:34:07.714Z,9.40
2023-10-14T03:35:07.628Z,4.70
2023-10-14T03:36:07.650Z,6.90
2023-10-14T03:37:07.632Z,4.50
2023-10-14T03:38:07.593Z,4.80
2023-10-14T03:39:07.578Z,3.90
2023-10-14T03:40:07.615Z,4.40
2023-10-14T03:41:07.638Z,4.20
2023-10-14T03:42:07.573Z,4.10
2023-10-14T03:43:07.546Z,3.90
2023-10-14T03:44:07.541Z,4.60
2023-10-14T03:45:07.523Z,5.40
2023-10-14T03:46:07.618Z,2.70
2023-10-14T03:47:07.540Z,2.30
2023-10-14T03:48:07.520Z,4.40
2023-10-14T03:49:10.777Z,4.10
2023-10-14T03:50:07.446Z,1.50
2023-10-14T03:51:07.456Z,3.10
2023-10-14T03:52:07.495Z,3.50
2023-10-14T03:53:07.415Z,4.30
2023-10-14T03:54:07.422Z,3.70
2023-10-14T03:55:09.154Z,3.00
2023-10-14T03:56:07.428Z,5.40
2023-10-14T03:57:07.401Z,3.20
2023-10-14T03:58:07.461Z,4.70
2023-10-14T03:59:07.429Z,4.50
2023-10-14T04:00:07.378Z,4.10
2023-10-14T04:01:07.391Z,4.80
2023-10-14T04:02:07.324Z,4.20
2023-10-14T04:03:07.403Z,3.20
2023-10-14T04:04:07.434Z,5.50
2023-10-14T04:05:07.302Z,5.20
2023-10-14T04:06:07.288Z,4.00
2023-10-14T04:07:07.359Z,5.80
2023-10-14T04:08:07.278Z,4.90
2023-10-14T04:09:07.261Z,4.60
2023-10-14T04:10:07.298Z,5.10
2023-10-14T04:11:07.224Z,5.30
2023-10-14T04:12:07.214Z,6.20
2023-10-14T04:13:07.255Z,5.70
2023-10-14T04:14:07.202Z,4.60
2023-10-14T04:15:07.214Z,3.40
2023-10-14T04:16:07.251Z,6.30
2023-10-14T04:17:07.171Z,5.20
2023-10-14T04:18:07.199Z,4.70
2023-10-14T04:19:07.228Z,4.40
2023-10-14T04:20:07.187Z,5.80
2023-10-14T04:21:07.118Z,3.60
2023-10-14T04:22:07.192Z,5.50
2023-10-14T04:23:07.083Z,3.80
2023-10-14T04:24:07.104Z,2.10
2023-10-14T04:25:07.115Z,3.70
2023-10-14T04:26:07.054Z,4.20
2023-10-14T04:27:07.076Z,4.50
2023-10-14T04:28:07.106Z,4.60
2023-10-14T04:29:07.026Z,6.00
2023-10-14T04:30:07.041Z,5.20
2023-10-14T04:31:07.169Z,5.10
2023-10-14T04:32:07.002Z,4.80
2023-10-14T04:33:06.996Z,2.70
2023-10-14T04:34:07.028Z,4.20
2023-10-14T04:35:06.975Z,6.20
2023-10-14T04:36:06.976Z,3.70
2023-10-14T04:37:06.971Z,6.30
2023-10-14T04:38:06.988Z,5.30
2023-10-14T04:39:06.910Z,6.30
2023-10-14T04:40:06.948Z,5.10
2023-10-14T04:41:06.948Z,3.60
2023-10-14T04:42:06.878Z,5.60
2023-10-14T04:43:06.931Z,4.00
2023-10-14T04:44:06.878Z,6.30
2023-10-14T04:45:06.856Z,3.80
2023-10-14T04:46:09.183Z,3.70
2023-10-14T04:47:06.945Z,6.50
2023-10-14T04:48:07.054Z,7.40
2023-10-14T04:49:06.852Z,5.50
2023-10-14T04:50:06.850Z,4.90
2023-10-14T04:51:06.816Z,4.60
2023-10-14T04:52:06.827Z,4.90
2023-10-14T04:53:06.770Z,7.30
2023-10-14T04:54:06.784Z,4.50
2023-10-14T04:55:06.777Z,5.50
2023-10-14T04:56:06.777Z,5.10
2023-10-14T04:57:06.779Z,4.70
2023-10-14T04:58:06.806Z,5.40
2023-10-14T04:59:06.728Z,5.20
2023-10-14T05:00:06.687Z,3.00
2023-10-14T05:01:06.721Z,10.00
2023-10-14T05:02:06.669Z,4.20
2023-10-14T05:03:06.718Z,5.40
2023-10-14T05:04:06.742Z,6.10
2023-10-14T05:05:06.643Z,5.70
2023-10-14T05:06:06.628Z,7.80
2023-10-14T05:07:06.621Z,8.40
2023-10-14T05:08:06.618Z,4.90
2023-10-14T05:09:06.607Z,4.30
2023-10-14T05:10:06.640Z,6.70
2023-10-14T05:11:06.560Z,5.90
2023-10-14T05:12:06.583Z,6.00
2023-10-14T05:13:06.583Z,3.80
2023-10-14T05:14:06.564Z,4.50
2023-10-14T05:15:06.568Z,4.40
2023-10-14T05:16:06.542Z,7.10
2023-10-14T05:17:06.527Z,6.00
2023-10-14T05:18:06.537Z,4.70
2023-10-14T05:19:06.541Z,5.20
2023-10-14T05:20:06.481Z,5.10
2023-10-14T05:21:06.498Z,9.60
2023-10-14T05:22:06.513Z,5.60
2023-10-14T05:23:06.506Z,5.30
2023-10-14T05:24:06.439Z,8.00
2023-10-14T05:25:06.479Z,4.00
2023-10-14T05:26:06.425Z,3.70
2023-10-14T05:27:06.404Z,5.50
2023-10-14T05:28:06.464Z,4.90
2023-10-14T05:29:06.385Z,4.60
2023-10-14T05:30:06.390Z,5.00
2023-10-14T05:31:06.452Z,4.20
2023-10-14T05:32:06.366Z,7.60
2023-10-14T05:33:06.349Z,5.80
2023-10-14T05:34:06.423Z,5.10
2023-10-14T05:35:06.363Z,4.40
2023-10-14T05:36:06.321Z,4.60
2023-10-14T05:37:06.328Z,5.40
2023-10-14T05:38:06.284Z,5.10
2023-10-14T05:39:06.268Z,6.40
2023-10-14T05:40:06.280Z,5.70
2023-10-14T05:41:06.242Z,3.40
2023-10-14T05:42:06.229Z,4.90
2023-10-14T05:43:06.252Z,5.40
2023-10-14T05:44:06.210Z,6.20
2023-10-14T05:45:06.222Z,6.10
2023-10-14T05:46:06.313Z,8.60
2023-10-14T05:47:06.267Z,4.70
2023-10-14T05:48:07.048Z,8.20
2023-10-14T05:49:06.321Z,8.40
2023-10-14T05:50:06.255Z,6.30
2023-10-14T05:51:06.132Z,7.70
2023-10-14T05:52:06.168Z,10.70
2023-10-14T05:53:06.112Z,7.70
2023-10-14T05:54:06.093Z,6.90
2023-10-14T05:55:06.144Z,6.80
2023-10-14T05:56:06.116Z,7.70
2023-10-14T05:57:06.058Z,7.10
2023-10-14T05:58:06.087Z,5.80
2023-10-14T05:59:06.040Z,10.10
2023-10-14T06:00:06.055Z,6.30
2023-10-14T06:01:06.059Z,6.50
2023-10-14T06:02:06.033Z,12.20
2023-10-14T06:03:06.054Z,7.20
2023-10-14T06:04:06.056Z,8.30
2023-10-14T06:05:06.044Z,8.90
2023-10-14T06:06:06.345Z,9.90
2023-10-14T06:07:06.013Z,10.20
2023-10-14T06:08:05.946Z,8.70
2023-10-14T06:09:05.921Z,7.80
2023-10-14T06:10:05.994Z,8.60
2023-10-14T06:11:05.909Z,7.60
2023-10-14T06:12:05.888Z,11.60
2023-10-14T06:13:05.925Z,6.10
2023-10-14T06:14:05.913Z,7.30
2023-10-14T06:15:05.896Z,9.10
2023-10-14T06:16:05.930Z,8.20
2023-10-14T06:17:05.944Z,9.70
2023-10-14T06:18:05.882Z,9.10
2023-10-14T06:19:05.920Z,6.60
2023-10-14T06:20:05.851Z,8.50
2023-10-14T06:21:05.805Z,6.20
2023-10-14T06:22:05.802Z,8.50
2023-10-14T06:23:05.782Z,9.50
2023-10-14T06:24:05.788Z,7.10
2023-10-14T06:25:05.801Z,5.50
2023-10-14T06:26:05.769Z,9.60
2023-10-14T06:27:05.772Z,8.80
2023-10-14T06:28:05.739Z,8.80
2023-10-14T06:29:05.707Z,7.20
2023-10-14T06:30:05.726Z,8.50
2023-10-14T06:31:05.800Z,9.00
2023-10-14T06:32:19.653Z,5.20
2023-10-14T06:33:05.751Z,11.10
2023-10-14T06:34:05.671Z,7.70
2023-10-14T06:35:05.651Z,6.70
2023-10-14T06:36:05.634Z,7.20
2023-10-14T06:37:05.642Z,7.40
2023-10-14T06:38:05.649Z,9.90
2023-10-14T06:39:05.606Z,7.90
2023-10-14T06:40:05.606Z,8.70
2023-10-14T06:41:05.585Z,3.90
2023-10-14T06:42:05.592Z,10.30
2023-10-14T06:43:05.632Z,7.80
2023-10-14T06:44:05.561Z,6.80
2023-10-14T06:45:05.539Z,10.70
2023-10-14T06:46:05.597Z,6.20
2023-10-14T06:47:05.558Z,5.00
2023-10-14T06:48:05.514Z,7.90
2023-10-14T06:49:05.550Z,7.00
2023-10-14T06:50:05.493Z,6.80
2023-10-14T06:51:05.487Z,7.00
2023-10-14T06:52:05.477Z,8.00
2023-10-14T06:53:05.461Z,12.30
2023-10-14T06:54:05.448Z,7.70
2023-10-14T06:55:05.519Z,7.80
2023-10-14T06:56:05.447Z,5.80
2023-10-14T06:57:05.413Z,6.50
2023-10-14T06:58:05.448Z,11.00
2023-10-14T06:59:05.414Z,8.70
2023-10-14T07:00:05.446Z,10.10
2023-10-14T07:01:05.419Z,6.00
2023-10-14T07:02:05.402Z,9.50
2023-10-14T07:03:05.390Z,8.10
2023-10-14T07:04:05.546Z,3.40
2023-10-14T07:05:05.321Z,7.50
2023-10-14T07:06:05.352Z,6.80
2023-10-14T07:07:05.331Z,6.90
2023-10-14T07:08:05.283Z,6.30
2023-10-14T07:09:05.289Z,10.10
2023-10-14T07:10:05.332Z,4.60
2023-10-14T07:11:05.281Z,11.90
2023-10-14T07:12:05.276Z,8.80
2023-10-14T07:13:05.251Z,7.00
2023-10-14T07:14:05.225Z,7.90
2023-10-14T07:15:05.226Z,6.70
2023-10-14T07:16:05.278Z,9.10
2023-10-14T07:17:05.229Z,9.60
2023-10-14T07:18:05.258Z,5.40
2023-10-14T07:19:05.258Z,9.20
2023-10-14T07:20:05.180Z,9.90
2023-10-14T07:21:05.153Z,7.40
2023-10-14T07:22:05.171Z,8.90
2023-10-14T07:23:05.146Z,8.10
2023-10-14T07:24:05.127Z,9.50
2023-10-14T07:25:05.124Z,5.30
2023-10-14T07:26:05.092Z,11.50
2023-10-14T07:27:05.072Z,6.20
2023-10-14T07:28:05.145Z,7.90
2023-10-14T07:29:05.086Z,4.90
2023-10-14T07:30:05.040Z,11.40
2023-10-14T07:31:05.082Z,8.20
2023-10-14T07:32:11.259Z,8.10
2023-10-14T07:33:05.114Z,9.30
2023-10-14T07:34:05.046Z,5.30
2023-10-14T07:35:05.023Z,11.30
2023-10-14T07:36:05.779Z,5.80
2023-10-14T07:37:04.991Z,8.00
2023-10-14T07:38:04.983Z,7.20
2023-10-14T07:39:04.951Z,8.00
2023-10-14T07:40:05.008Z,7.30
2023-10-14T07:41:04.930Z,9.30
2023-10-14T07:42:04.981Z,9.80
2023-10-14T07:43:06.276Z,6.90
2023-10-14T07:44:04.929Z,7.00
2023-10-14T07:45:04.916Z,7.10
2023-10-14T07:46:04.966Z,8.90
2023-10-14T07:47:04.961Z,8.00
2023-10-14T07:48:04.919Z,12.60
2023-10-14T07:49:04.869Z,6.60
2023-10-14T07:50:04.853Z,7.80
2023-10-14T07:51:14.068Z,8.10
2023-10-14T07:52:04.912Z,9.70
2023-10-14T07:53:04.797Z,13.70
2023-10-14T07:54:04.800Z,6.60
2023-10-14T07:55:04.877Z,5.00
2023-10-14T07:56:04.770Z,7.70
2023-10-14T07:57:04.761Z,10.00
2023-10-14T07:58:04.792Z,9.20
2023-10-14T07:59:04.749Z,10.20
2023-10-14T08:00:04.740Z,10.30
2023-10-14T08:01:04.888Z,5.70
2023-10-14T08:02:04.736Z,7.30
2023-10-14T08:03:04.733Z,6.50
2023-10-14T08:04:04.749Z,9.80
2023-10-14T08:05:04.704Z,5.10
2023-10-14T08:06:04.669Z,7.90
2023-10-14T08:07:04.708Z,5.20
2023-10-14T08:08:04.634Z,10.50
2023-10-14T08:09:04.620Z,8.90
2023-10-14T08:10:04.670Z,6.90
2023-10-14T08:11:04.622Z,9.90
2023-10-14T08:12:04.611Z,7.00
2023-10-14T08:13:04.599Z,8.60
2023-10-14T08:14:04.590Z,7.30
2023-10-14T08:15:04.611Z,7.50
2023-10-14T08:16:05.905Z,5.80
2023-10-14T08:17:04.609Z,8.40
2023-10-14T08:18:04.558Z,8.70
2023-10-14T08:19:04.554Z,9.50
2023-10-14T08:20:04.541Z,5.50
2023-10-14T08:21:04.681Z,8.90
2023-10-14T08:22:04.554Z,10.80
2023-10-14T08:23:04.505Z,8.90
2023-10-14T08:24:04.470Z,8.70
2023-10-14T08:25:04.499Z,6.90
2023-10-14T08:26:04.461Z,9.00
2023-10-14T08:27:04.442Z,7.90
2023-10-14T08:28:04.465Z,5.80
2023-10-14T08:29:04.422Z,9.00
2023-10-14T08:30:04.445Z,9.90
2023-10-14T08:31:04.412Z,10.00
2023-10-14T08:32:04.451Z,7.30
2023-10-14T08:33:04.456Z,10.30
2023-10-14T08:34:04.386Z,6.30
2023-10-14T08:35:04.366Z,10.60
2023-10-14T08:36:04.367Z,8.40
2023-10-14T08:37:04.373Z,7.90
2023-10-14T08:38:04.316Z,10.10
2023-10-14T08:39:04.323Z,9.00
2023-10-14T08:40:06.391Z,7.40
2023-10-14T08:41:04.311Z,7.90
2023-10-14T08:42:04.274Z,8.40
2023-10-14T08:43:04.295Z,8.30
2023-10-14T08:44:04.319Z,8.20
2023-10-14T08:45:04.250Z,6.80
2023-10-14T08:46:04.344Z,8.20
2023-10-14T08:47:06.757Z,9.60
2023-10-14T08:48:04.258Z,12.80
2023-10-14T08:49:04.277Z,7.20
2023-10-14T08:50:04.208Z,12.20
2023-10-14T08:51:04.176Z,5.10
2023-10-14T08:52:04.182Z,11.60
2023-10-14T08:53:04.163Z,10.40
2023-10-14T08:54:04.163Z,7.40
2023-10-14T08:55:04.198Z,4.90
2023-10-14T08:56:04.118Z,11.60
2023-10-14T08:57:04.123Z,10.60
2023-10-14T08:58:04.153Z,5.70
2023-10-14T08:59:04.118Z,8.00
2023-10-14T09:00:04.093Z,10.10
2023-10-14T09:01:04.125Z,6.10
2023-10-14T09:02:04.184Z,7.30
2023-10-14T09:03:04.053Z,9.40
2023-10-14T09:04:04.178Z,6.00
2023-10-14T09:05:04.046Z,7.40
2023-10-14T09:06:04.002Z,7.30
2023-10-14T09:07:04.075Z,8.30
2023-10-14T09:08:03.997Z,8.50
2023-10-14T09:09:03.985Z,7.60
2023-10-14T09:10:04.142Z,8.10
2023-10-14T09:11:03.946Z,9.20
2023-10-14T09:12:03.948Z,8.40
2023-10-14T09:13:03.934Z,8.00
2023-10-14T09:14:03.917Z,7.50
2023-10-14T09:15:03.933Z,6.50
2023-10-14T09:16:04.000Z,5.00
2023-10-14T09:17:03.979Z,5.40
2023-10-14T09:18:03.944Z,6.20
2023-10-14T09:19:03.880Z,9.40
2023-10-14T09:20:03.885Z,9.70
2023-10-14T09:21:03.847Z,8.40
2023-10-14T09:22:03.869Z,8.00
2023-10-14T09:23:03.821Z,8.90
2023-10-14T09:24:03.816Z,7.60
2023-10-14T09:25:03.867Z,8.20
2023-10-14T09:26:03.792Z,10.80
2023-10-14T09:27:03.806Z,6.90
2023-10-14T09:28:03.797Z,6.70
2023-10-14T09:29:03.760Z,10.90
2023-10-14T09:30:03.787Z,8.20
2023-10-14T09:31:03.925Z,9.00
2023-10-14T09:32:03.741Z,7.40
2023-10-14T09:33:03.790Z,7.40
2023-10-14T09:34:03.775Z,9.70
2023-10-14T09:35:03.737Z,8.30
2023-10-14T09:36:03.735Z,7.50
2023-10-14T09:37:03.732Z,6.00
2023-10-14T09:38:03.687Z,7.60
2023-10-14T09:39:03.638Z,9.00
2023-10-14T09:40:05.158Z,8.20
2023-10-14T09:41:03.647Z,9.00
2023-10-14T09:42:03.626Z,6.20
2023-10-14T09:43:03.647Z,9.30
2023-10-14T09:44:03.596Z,5.60
2023-10-14T09:45:03.624Z,7.70
2023-10-14T09:46:03.661Z,11.60
2023-10-14T09:47:03.601Z,11.50
2023-10-14T09:48:03.602Z,7.40
2023-10-14T09:49:03.579Z,10.00
2023-10-14T09:50:03.542Z,5.60
2023-10-14T09:51:03.545Z,5.90
2023-10-14T09:52:03.518Z,4.90
2023-10-14T09:53:03.541Z,6.40
2023-10-14T09:54:03.468Z,7.80
2023-10-14T09:55:03.629Z,7.80
2023-10-14T09:56:05.050Z,6.10
2023-10-14T09:57:03.450Z,6.50
2023-10-14T09:58:03.503Z,11.40
2023-10-14T09:59:03.436Z,4.60
2023-10-14T10:00:03.468Z,6.20
2023-10-14T10:01:03.480Z,5.90
2023-10-14T10:02:03.550Z,4.90
2023-10-14T10:03:03.460Z,4.30
2023-10-14T10:04:03.400Z,5.80
2023-10-14T10:05:03.393Z,6.80
2023-10-14T10:06:03.354Z,6.80
2023-10-14T10:07:03.469Z,5.80
2023-10-14T10:08:03.323Z,4.80
2023-10-14T10:09:03.335Z,5.60
2023-10-14T10:10:03.414Z,8.50
2023-10-14T10:11:03.414Z,8.70
2023-10-14T10:12:03.276Z,7.40
2023-10-14T10:13:03.430Z,5.50
2023-10-14T10:14:03.270Z,4.00
2023-10-14T10:15:03.292Z,4.00
2023-10-14T10:16:03.314Z,4.60
2023-10-14T10:17:03.270Z,4.70
2023-10-14T10:18:03.295Z,5.50
2023-10-14T10:19:03.317Z,4.30
2023-10-14T10:20:03.232Z,3.60
2023-10-14T10:21:03.203Z,3.80
2023-10-14T10:22:03.226Z,6.30
2023-10-14T10:23:03.171Z,6.40
2023-10-14T10:24:03.163Z,4.70
2023-10-14T10:25:03.233Z,5.50
2023-10-14T10:26:03.167Z,4.20
2023-10-14T10:27:03.143Z,2.10
2023-10-14T10:28:03.144Z,3.00
2023-10-14T10:29:03.103Z,5.10
2023-10-14T10:30:03.146Z,4.30
2023-10-14T10:31:03.098Z,2.80
2023-10-14T10:32:03.120Z,2.80
2023-10-14T10:33:03.104Z,5.30
2023-10-14T10:34:03.173Z,4.60
2023-10-14T10:35:03.083Z,5.30
2023-10-14T10:36:03.037Z,4.10
2023-10-14T10:37:03.033Z,5.10
2023-10-14T10:38:03.021Z,3.80
2023-10-14T10:39:03.001Z,3.70
2023-10-14T10:40:03.035Z,3.20
2023-10-14T10:41:02.968Z,2.80
2023-10-14T10:42:02.973Z,3.60
2023-10-14T10:43:02.977Z,4.90
2023-10-14T10:44:02.970Z,2.40
2023-10-14T10:45:02.923Z,7.30
2023-10-14T10:46:03.540Z,3.60
2023-10-14T10:47:02.949Z,2.30
2023-10-14T10:48:02.949Z,2.40
2023-10-14T10:49:02.958Z,3.00
2023-10-14T10:50:02.891Z,3.60
2023-10-14T10:51:02.876Z,3.60
2023-10-14T10:52:02.910Z,2.50
2023-10-14T10:53:02.854Z,3.90
2023-10-14T10:54:02.828Z,5.00
2023-10-14T10:55:02.914Z,5.30
2023-10-14T10:56:02.812Z,4.00
2023-10-14T10:57:08.177Z,7.20
2023-10-14T10:58:02.864Z,4.30
2023-10-14T10:59:02.778Z,6.00
2023-10-14T11:00:02.779Z,4.40
2023-10-14T11:01:02.822Z,3.50
2023-10-14T11:02:02.948Z,3.70
2023-10-14T11:03:02.878Z,4.60
2023-10-14T11:04:02.827Z,4.60
2023-10-14T11:05:02.725Z,5.20
2023-10-14T11:06:02.691Z,6.30
2023-10-14T11:07:02.766Z,4.80
2023-10-14T11:08:02.682Z,4.40
2023-10-14T11:09:02.666Z,4.70
2023-10-14T11:10:02.734Z,5.00
2023-10-14T11:11:02.726Z,3.30
2023-10-14T11:12:02.655Z,3.80
2023-10-14T11:13:02.688Z,5.50
2023-10-14T11:14:02.678Z,4.20
2023-10-14T11:15:02.591Z,5.40
2023-10-14T11:16:02.613Z,2.50
2023-10-14T11:17:02.636Z,5.10
2023-10-14T11:18:02.611Z,4.70
2023-10-14T11:19:02.572Z,6.80
2023-10-14T11:20:02.550Z,4.20
2023-10-14T11:21:02.513Z,4.90
2023-10-14T11:22:02.584Z,4.30
2023-10-14T11:23:02.516Z,2.60
2023-10-14T11:24:02.486Z,5.30
2023-10-14T11:25:02.523Z,4.30
2023-10-14T11:26:02.502Z,6.20
2023-10-14T11:27:02.523Z,4.10
2023-10-14T11:28:02.524Z,8.80
2023-10-14T11:29:02.451Z,5.80
2023-10-14T11:30:02.420Z,7.80
2023-10-14T11:31:02.551Z,6.40
2023-10-14T11:32:02.431Z,6.60
2023-10-14T11:33:02.412Z,4.20
2023-10-14T11:34:02.426Z,4.90
2023-10-14T11:35:02.391Z,5.50
2023-10-14T11:36:02.380Z,3.70
2023-10-14T11:37:02.417Z,3.80
2023-10-14T11:38:02.341Z,2.70
2023-10-14T11:39:02.341Z,4.10
2023-10-14T11:40:02.383Z,4.80
2023-10-14T11:41:02.324Z,4.10
2023-10-14T11:42:02.304Z,5.80
2023-10-14T11:43:02.315Z,2.10
2023-10-14T11:44:02.292Z,4.30
2023-10-14T11:45:02.256Z,3.70
2023-10-14T11:46:02.304Z,2.50
2023-10-14T11:47:02.382Z,4.40
2023-10-14T11:48:02.323Z,3.00
2023-10-14T11:49:02.277Z,3.70
2023-10-14T11:50:02.209Z,3.00
2023-10-14T11:51:02.237Z,3.00
2023-10-14T11:52:02.196Z,4.70
2023-10-14T11:53:02.177Z,4.50
2023-10-14T11:54:02.172Z,4.80
2023-10-14T11:55:02.212Z,2.70
2023-10-14T11:56:02.184Z,5.40
2023-10-14T11:57:02.139Z,4.30
2023-10-14T11:58:02.166Z,3.30
2023-10-14T11:59:02.116Z,3.70
2023-10-14T12:00:02.142Z,3.70
2023-10-14T12:01:02.104Z,2.20
2023-10-14T12:02:02.060Z,2.60
2023-10-14T12:03:02.189Z,2.90
2023-10-14T12:04:02.171Z,2.30
2023-10-14T12:05:02.119Z,2.50
2023-10-14T12:06:02.049Z,1.60
2023-10-14T12:07:02.058Z,3.10
2023-10-14T12:08:02.037Z,2.60
2023-10-14T12:09:02.000Z,5.70
2023-10-14T12:10:02.069Z,1.10
2023-10-14T12:11:01.971Z,2.10
2023-10-14T12:12:02.025Z,4.20
2023-10-14T12:13:01.976Z,1.50
2023-10-14T12:14:02.014Z,0.80
2023-10-14T12:15:01.976Z,2.70
2023-10-14T12:16:01.938Z,2.60
2023-10-14T12:17:01.997Z,1.10
2023-10-14T12:18:02.023Z,2.00
2023-10-14T12:19:01.973Z,2.00
2023-10-14T12:20:01.900Z,2.40
2023-10-14T12:21:01.899Z,2.20
2023-10-14T12:22:01.883Z,1.70
2023-10-14T12:23:01.909Z,4.20
2023-10-14T12:24:01.864Z,2.40
2023-10-14T12:25:01.881Z,3.60
2023-10-14T12:26:01.888Z,3.30
2023-10-14T12:27:01.825Z,2.80
2023-10-14T12:28:01.808Z,2.50
2023-10-14T12:29:01.789Z,3.30
2023-10-14T12:30:01.796Z,3.50
2023-10-14T12:31:01.827Z,3.10
2023-10-14T12:32:17.338Z,7.10
2023-10-14T12:33:01.816Z,2.90
2023-10-14T12:34:01.772Z,2.20
2023-10-14T12:35:01.751Z,2.30
2023-10-14T12:36:01.693Z,5.60
2023-10-14T12:37:01.746Z,4.40
2023-10-14T12:38:01.718Z,3.80
2023-10-14T12:39:01.673Z,3.20
2023-10-14T12:40:01.685Z,2.50
2023-10-14T12:41:01.690Z,3.60
2023-10-14T12:42:01.654Z,3.00
2023-10-14T12:43:01.705Z,3.70
2023-10-14T12:44:01.650Z,4.60
2023-10-14T12:45:01.627Z,4.80
2023-10-14T12:46:01.624Z,3.00
2023-10-14T12:47:01.754Z,3.70
2023-10-14T12:48:01.695Z,5.10
2023-10-14T12:49:01.628Z,4.90
2023-10-14T12:50:02.460Z,3.70
2023-10-14T12:51:01.589Z,4.60
2023-10-14T12:52:01.577Z,3.60
2023-10-14T12:53:01.536Z,4.20
2023-10-14T12:54:01.515Z,3.70
2023-10-14T12:55:01.574Z,4.90
2023-10-14T12:56:01.489Z,5.30
2023-10-14T12:57:01.484Z,4.80
2023-10-14T12:58:01.628Z,5.70
2023-10-14T12:59:01.497Z,5.50
2023-10-14T13:00:01.487Z,4.10
2023-10-14T13:01:01.545Z,6.50
2023-10-14T13:02:01.435Z,6.50
2023-10-14T13:03:01.491Z,6.30
2023-10-14T13:04:01.515Z,4.60
2023-10-14T13:05:01.412Z,7.10
2023-10-14T13:06:01.374Z,5.90
2023-10-14T13:07:01.388Z,5.10
2023-10-14T13:08:01.375Z,5.20
2023-10-14T13:09:01.343Z,3.90
2023-10-14T13:10:01.386Z,6.30
2023-10-14T13:11:01.330Z,3.30
2023-10-14T13:12:01.461Z,7.40
2023-10-14T13:13:01.337Z,6.10
2023-10-14T13:14:01.327Z,5.40
2023-10-14T13:15:01.323Z,6.10
2023-10-14T13:16:01.324Z,4.80
2023-10-14T13:17:02.540Z,7.70
2023-10-14T13:18:01.297Z,7.60